Time;durP1;ratioP1;P1;durP2;ratioP2;P2;SDS_P1;SDS_P2;PMS_P1;PMS_P2;Temp;Humidity;BMP_temperature;BMP_pressure;BME280_temperature;BME280_humidity;BME280_pressure;Samples;Min_cycle;Max_cycle;Signal;HPM_P1;HPM_P2
2023/04/25 00:01:13;;;;;;;;;;;7.20;99.90;;;;;;5066722;28;19938;-51
2023/04/25 00:03:40;;;;;;;;;;;7.20;99.90;;;;;;5055362;28;20420;-48
2023/04/25 00:06:08;;;;;;;;;;;7.10;99.90;;;;;;5047185;28;19937;-47
2023/04/25 00:08:34;;;;;;;;;;;7.10;99.90;;;;;;5052285;28;20017;-52
2023/04/25 00:11:01;;;;;;;;;;;7.10;99.90;;;;;;5066715;28;20031;-49
2023/04/25 00:13:28;;;;;;;;;;;7.00;99.90;;;;;;5049154;28;20300;-50
2023/04/25 00:15:57;;;;;;;;;;;6.90;99.90;;;;;;5065309;28;19920;-44
2023/04/25 00:18:24;;;;;;;;;;;6.90;99.90;;;;;;5051920;28;19985;-46
2023/04/25 00:20:51;;;;;;;;;;;6.90;99.90;;;;;;5064720;28;19967;-48
2023/04/25 00:23:18;;;;;;;;;;;6.80;99.90;;;;;;5064300;28;19986;-46
2023/04/25 00:25:45;;;;;;;;;;;6.90;99.90;;;;;;5068791;28;19953;-50
2023/04/25 00:28:11;;;;;;;;;;;6.80;99.90;;;;;;5050246;28;19940;-49
2023/04/25 00:30:38;;;;;;;;;;;6.80;99.90;;;;;;5060588;28;20162;-48
2023/04/25 00:33:06;;;;;;;;;;;6.70;99.90;;;;;;5066996;28;20030;-49
2023/04/25 00:35:33;;;;;;;;;;;6.70;99.90;;;;;;5052209;28;20394;-47
2023/04/25 00:38:00;;;;;;;;;;;6.70;99.90;;;;;;5054820;28;19936;-48
2023/04/25 00:40:26;;;;;;;;;;;6.70;99.90;;;;;;5071355;28;19940;-48
2023/04/25 00:42:53;;;;;;;;;;;6.70;99.90;;;;;;5070253;28;19933;-46
2023/04/25 00:45:20;;;;;;;;;;;6.60;99.90;;;;;;5072110;28;20055;-43
2023/04/25 00:47:47;;;;;;;;;;;6.60;99.90;;;;;;5063371;28;19942;-46
2023/04/25 00:50:15;;;;;;;;;;;6.60;99.90;;;;;;5051002;28;19937;-45
2023/04/25 00:52:44;;;;;;;;;;;6.70;99.90;;;;;;5050935;28;19984;-45
2023/04/25 00:55:10;;;;;;;;;;;6.60;99.90;;;;;;5065484;28;20437;-44
2023/04/25 00:57:37;;;;;;;;;;;6.60;99.90;;;;;;5070483;28;19946;-46
2023/04/25 01:00:06;;;;;;;;;;;6.60;99.90;;;;;;5055856;28;19988;-47
2023/04/25 01:02:33;;;;;;;;;;;6.60;99.90;;;;;;5071743;28;20325;-47
2023/04/25 01:04:59;;;;;;;;;;;6.60;99.90;;;;;;5074512;28;19995;-50
2023/04/25 01:07:27;;;;;;;;;;;6.60;99.90;;;;;;5066649;28;20400;-51
2023/04/25 01:09:54;;;;;;;;;;;6.60;99.90;;;;;;5054661;28;20450;-50
2023/04/25 01:12:21;;;;;;;;;;;6.60;99.90;;;;;;5054621;28;20034;-46
2023/04/25 01:14:47;;;;;;;;;;;6.60;99.90;;;;;;5064954;28;19937;-48
2023/04/25 01:17:14;;;;;;;;;;;6.50;99.90;;;;;;5057422;28;19937;-51
2023/04/25 01:19:41;;;;;;;;;;;6.50;99.90;;;;;;5054172;28;20035;-49
2023/04/25 01:22:10;;;;;;;;;;;6.50;99.90;;;;;;5068102;28;19942;-42
2023/04/25 01:24:38;;;;;;;;;;;6.40;99.90;;;;;;5051405;28;20053;-47
2023/04/25 01:27:05;;;;;;;;;;;6.40;99.90;;;;;;5054086;28;20750;-49
2023/04/25 01:29:32;;;;;;;;;;;6.40;99.90;;;;;;5070227;28;20057;-48
2023/04/25 01:31:59;;;;;;;;;;;6.40;99.90;;;;;;5073972;28;19937;-49
2023/04/25 01:34:26;;;;;;;;;;;6.30;99.90;;;;;;5074463;28;19936;-46
2023/04/25 01:36:52;;;;;;;;;;;6.30;99.90;;;;;;5061851;28;20004;-48
2023/04/25 01:39:20;;;;;;;;;;;6.30;99.90;;;;;;5060759;28;19998;-49
2023/04/25 01:41:47;;;;;;;;;;;6.30;99.90;;;;;;5073551;28;19993;-43
2023/04/25 01:44:14;;;;;;;;;;;6.30;99.90;;;;;;5054075;28;19957;-45
2023/04/25 01:46:41;;;;;;;;;;;6.30;99.90;;;;;;5054509;28;19942;-47
2023/04/25 01:49:07;;;;;;;;;;;6.30;99.90;;;;;;5053987;28;19941;-45
2023/04/25 01:51:34;;;;;;;;;;;6.30;99.90;;;;;;5054108;28;19937;-45
2023/04/25 01:54:01;;;;;;;;;;;6.30;99.90;;;;;;5055642;28;20479;-43
2023/04/25 01:56:32;;;;;;;;;;;6.20;99.90;;;;;;5054321;28;20449;-47
2023/04/25 01:58:58;;;;;;;;;;;6.20;99.90;;;;;;5064387;28;20299;-42
2023/04/25 02:01:25;;;;;;;;;;;6.20;99.90;;;;;;5063907;28;19940;-45
2023/04/25 02:03:51;;;;;;;;;;;6.20;99.90;;;;;;5056152;28;19975;-46
2023/04/25 02:06:18;;;;;;;;;;;6.20;99.90;;;;;;5057332;28;19998;-48
2023/04/25 02:08:45;;;;;;;;;;;6.20;99.90;;;;;;5054233;28;19986;-49
2023/04/25 02:11:11;;;;;;;;;;;6.20;99.90;;;;;;5064665;28;20033;-48
2023/04/25 02:13:39;;;;;;;;;;;6.20;99.90;;;;;;5060837;28;20360;-47
2023/04/25 02:16:06;;;;;;;;;;;6.20;99.90;;;;;;5062781;28;20375;-46
2023/04/25 02:18:33;;;;;;;;;;;6.20;99.90;;;;;;5072235;28;19994;-45
2023/04/25 02:21:00;;;;;;;;;;;6.10;99.90;;;;;;5058952;28;19960;-45
2023/04/25 02:23:27;;;;;;;;;;;6.10;99.90;;;;;;5057308;28;20028;-44
2023/04/25 02:25:55;;;;;;;;;;;6.10;99.90;;;;;;5066975;28;19967;-44
2023/04/25 02:28:21;;;;;;;;;;;6.10;99.90;;;;;;5052872;28;19925;-44
2023/04/25 02:30:49;;;;;;;;;;;6.10;99.90;;;;;;5053273;28;19937;-45
2023/04/25 02:33:16;;;;;;;;;;;6.10;99.90;;;;;;5067130;28;19938;-44
2023/04/25 02:35:43;;;;;;;;;;;6.10;99.90;;;;;;5051912;28;19945;-45
2023/04/25 02:38:10;;;;;;;;;;;6.10;99.90;;;;;;5058076;28;19984;-44
2023/04/25 02:40:36;;;;;;;;;;;6.10;99.90;;;;;;5051280;28;20033;-43
2023/04/25 02:43:03;;;;;;;;;;;6.10;99.90;;;;;;5039837;28;20015;-46
2023/04/25 02:45:29;;;;;;;;;;;6.10;99.90;;;;;;5041658;28;20367;-45
2023/04/25 02:47:57;;;;;;;;;;;6.00;99.90;;;;;;5052685;28;19939;-42
2023/04/25 02:50:24;;;;;;;;;;;6.10;99.90;;;;;;5051335;28;20364;-45
2023/04/25 02:52:51;;;;;;;;;;;6.00;99.90;;;;;;5039743;28;19977;-45
2023/04/25 02:55:17;;;;;;;;;;;6.00;99.90;;;;;;5055956;28;19986;-43
2023/04/25 02:57:44;;;;;;;;;;;5.90;99.90;;;;;;5056485;28;20396;-42
2023/04/25 03:00:14;;;;;;;;;;;5.90;99.90;;;;;;5051997;28;19940;-43
2023/04/25 03:02:40;;;;;;;;;;;5.90;99.90;;;;;;5053210;28;19937;-46
2023/04/25 03:05:08;;;;;;;;;;;5.90;99.90;;;;;;5051680;28;19948;-47
2023/04/25 03:07:35;;;;;;;;;;;5.90;99.90;;;;;;5054393;28;19946;-45
2023/04/25 03:10:02;;;;;;;;;;;5.80;99.90;;;;;;5053267;28;19943;-45
2023/04/25 03:12:28;;;;;;;;;;;5.90;99.90;;;;;;5050208;28;20040;-47
2023/04/25 03:14:55;;;;;;;;;;;5.90;99.90;;;;;;5057120;28;19972;-46
2023/04/25 03:17:22;;;;;;;;;;;5.90;99.90;;;;;;5056680;28;20375;-42
2023/04/25 03:19:48;;;;;;;;;;;5.90;99.90;;;;;;5046337;28;20058;-47
2023/04/25 03:22:16;;;;;;;;;;;5.90;99.90;;;;;;5051209;28;19987;-47
2023/04/25 03:24:43;;;;;;;;;;;5.90;99.90;;;;;;5051825;28;19925;-44
2023/04/25 03:27:09;;;;;;;;;;;5.80;99.90;;;;;;5054807;28;20427;-43
2023/04/25 03:29:36;;;;;;;;;;;5.80;99.90;;;;;;5053929;28;19975;-44
2023/04/25 03:32:03;;;;;;;;;;;5.80;99.90;;;;;;5051321;28;19972;-48
2023/04/25 03:34:29;;;;;;;;;;;5.70;99.90;;;;;;5063104;28;19957;-46
2023/04/25 03:36:56;;;;;;;;;;;5.70;99.90;;;;;;5050970;28;20393;-42
2023/04/25 03:39:24;;;;;;;;;;;5.70;99.90;;;;;;5051908;28;19937;-43
2023/04/25 03:41:51;;;;;;;;;;;5.70;99.90;;;;;;5051102;28;19984;-45
2023/04/25 03:44:17;;;;;;;;;;;5.60;99.90;;;;;;5052048;28;20030;-48
2023/04/25 03:46:44;;;;;;;;;;;5.60;99.90;;;;;;5045559;28;20002;-41
2023/04/25 03:49:11;;;;;;;;;;;5.50;99.90;;;;;;5041500;28;20384;-43
2023/04/25 03:51:37;;;;;;;;;;;5.50;99.90;;;;;;5051392;28;19931;-44
2023/04/25 03:54:04;;;;;;;;;;;5.50;99.90;;;;;;5063081;28;20374;-49
2023/04/25 03:56:32;;;;;;;;;;;5.50;99.90;;;;;;5072776;28;20318;-47
2023/04/25 03:58:59;;;;;;;;;;;5.50;99.90;;;;;;5071215;28;19938;-47
2023/04/25 04:01:25;;;;;;;;;;;5.50;99.90;;;;;;5053046;28;19925;-43
2023/04/25 04:03:52;;;;;;;;;;;5.50;99.90;;;;;;5052870;28;19933;-44
2023/04/25 04:06:20;;;;;;;;;;;5.50;99.90;;;;;;5052244;28;20045;-45
2023/04/25 04:08:47;;;;;;;;;;;5.40;99.90;;;;;;5052405;28;19937;-46
2023/04/25 04:11:13;;;;;;;;;;;5.40;99.90;;;;;;5059782;28;20440;-46
2023/04/25 04:13:41;;;;;;;;;;;5.40;99.90;;;;;;5049256;28;19998;-45
2023/04/25 04:16:08;;;;;;;;;;;5.40;99.90;;;;;;5031469;28;19941;-40
2023/04/25 04:18:35;;;;;;;;;;;5.40;99.90;;;;;;5034479;28;20043;-45
2023/04/25 04:21:02;;;;;;;;;;;5.40;99.90;;;;;;5052439;28;19970;-45
2023/04/25 04:23:28;;;;;;;;;;;5.40;99.90;;;;;;5052057;28;20065;-48
2023/04/25 04:25:56;;;;;;;;;;;5.40;99.90;;;;;;5052467;28;19966;-45
2023/04/25 04:28:22;;;;;;;;;;;5.40;99.90;;;;;;5051444;28;19921;-44
2023/04/25 04:30:52;;;;;;;;;;;5.40;99.90;;;;;;5052486;28;19941;-46
2023/04/25 04:33:19;;;;;;;;;;;5.40;99.90;;;;;;5055566;28;20304;-44
2023/04/25 04:35:46;;;;;;;;;;;5.40;99.90;;;;;;5055889;28;19957;-45
2023/04/25 04:38:15;;;;;;;;;;;5.40;99.90;;;;;;5057156;28;20376;-45
2023/04/25 04:40:42;;;;;;;;;;;5.40;99.90;;;;;;5067093;28;19937;-45
2023/04/25 04:43:10;;;;;;;;;;;5.40;99.90;;;;;;5076291;28;19920;-45
2023/04/25 04:45:37;;;;;;;;;;;5.40;99.90;;;;;;5075164;28;19956;-45
2023/04/25 04:48:06;;;;;;;;;;;5.40;99.90;;;;;;5060456;28;19971;-44
2023/04/25 04:50:33;;;;;;;;;;;5.40;99.90;;;;;;5049872;28;19978;-42
2023/04/25 04:53:00;;;;;;;;;;;5.40;99.90;;;;;;5051959;28;19947;-44
2023/04/25 04:55:26;;;;;;;;;;;5.40;99.90;;;;;;5052469;28;19935;-44
2023/04/25 04:57:53;;;;;;;;;;;5.50;99.90;;;;;;5054899;28;20456;-46
2023/04/25 05:00:20;;;;;;;;;;;5.40;99.90;;;;;;5050653;28;19940;-39
2023/04/25 05:02:47;;;;;;;;;;;5.50;99.90;;;;;;5048940;28;19943;-46
2023/04/25 05:05:15;;;;;;;;;;;5.50;99.90;;;;;;5060336;28;19920;-45
2023/04/25 05:07:41;;;;;;;;;;;5.50;99.90;;;;;;5073828;28;19937;-44
2023/04/25 05:10:09;;;;;;;;;;;5.50;99.90;;;;;;5071641;28;20518;-42
2023/04/25 05:12:35;;;;;;;;;;;5.50;99.90;;;;;;5072088;28;19979;-44
2023/04/25 05:15:02;;;;;;;;;;;5.50;99.90;;;;;;5066553;28;20075;-45
2023/04/25 05:17:28;;;;;;;;;;;5.60;99.90;;;;;;5051783;28;19972;-45
2023/04/25 05:19:55;;;;;;;;;;;5.60;99.90;;;;;;5069475;28;20453;-46
2023/04/25 05:22:23;;;;;;;;;;;5.60;99.90;;;;;;5074634;28;19982;-44
2023/04/25 05:24:51;;;;;;;;;;;5.60;99.90;;;;;;5074041;28;19979;-44
2023/04/25 05:27:17;;;;;;;;;;;5.70;99.90;;;;;;5054513;28;19965;-43
2023/04/25 05:29:44;;;;;;;;;;;5.70;99.90;;;;;;5062854;28;19940;-43
2023/04/25 05:32:11;;;;;;;;;;;5.70;99.90;;;;;;5072523;28;19937;-44
2023/04/25 05:34:37;;;;;;;;;;;5.70;99.90;;;;;;5073666;28;19982;-44
2023/04/25 05:37:04;;;;;;;;;;;5.80;99.90;;;;;;5075740;28;19920;-46
2023/04/25 05:39:32;;;;;;;;;;;5.80;99.90;;;;;;5075498;28;19950;-48
2023/04/25 05:41:59;;;;;;;;;;;5.90;99.90;;;;;;5066369;28;19952;-41
2023/04/25 05:44:26;;;;;;;;;;;6.00;99.90;;;;;;5060421;28;20054;-43
2023/04/25 05:46:53;;;;;;;;;;;6.00;99.90;;;;;;5053346;28;20236;-45
2023/04/25 05:49:19;;;;;;;;;;;6.10;99.90;;;;;;5038479;28;19943;-45
2023/04/25 05:51:46;;;;;;;;;;;6.10;99.90;;;;;;5051894;28;19935;-43
2023/04/25 05:54:12;;;;;;;;;;;6.10;99.90;;;;;;5041266;28;19990;-46
2023/04/25 05:56:40;;;;;;;;;;;6.20;99.90;;;;;;5053902;28;19990;-45
2023/04/25 05:59:07;;;;;;;;;;;6.20;99.90;;;;;;5053499;28;19991;-43
2023/04/25 06:01:34;;;;;;;;;;;6.30;99.90;;;;;;5053013;28;20035;-44
2023/04/25 06:04:01;;;;;;;;;;;6.30;99.90;;;;;;5051497;28;19972;-43
2023/04/25 06:06:27;;;;;;;;;;;6.20;99.90;;;;;;5069321;28;19949;-43
2023/04/25 06:08:54;;;;;;;;;;;6.30;99.90;;;;;;5070857;28;20468;-42
2023/04/25 06:11:21;;;;;;;;;;;6.30;99.90;;;;;;5051836;28;19933;-43
2023/04/25 06:13:49;;;;;;;;;;;6.30;99.90;;;;;;5066818;28;20029;-45
2023/04/25 06:16:15;;;;;;;;;;;6.40;99.90;;;;;;5041532;28;20065;-39
2023/04/25 06:18:42;;;;;;;;;;;6.40;99.90;;;;;;5040209;28;19944;-43
2023/04/25 06:21:09;;;;;;;;;;;6.40;99.90;;;;;;5053806;28;19941;-43
2023/04/25 06:23:35;;;;;;;;;;;6.40;99.90;;;;;;5047074;28;19939;-40
2023/04/25 06:26:02;;;;;;;;;;;6.50;99.90;;;;;;5047950;28;20000;-43
2023/04/25 06:28:28;;;;;;;;;;;6.50;99.90;;;;;;5047055;28;19984;-42
2023/04/25 06:30:56;;;;;;;;;;;6.50;99.90;;;;;;5042970;28;19933;-44
2023/04/25 06:33:24;;;;;;;;;;;6.50;99.90;;;;;;5053461;28;20003;-43
2023/04/25 06:35:50;;;;;;;;;;;6.50;99.90;;;;;;5059600;28;20402;-43
2023/04/25 06:38:17;;;;;;;;;;;6.60;99.90;;;;;;5068754;28;19989;-44
2023/04/25 06:40:44;;;;;;;;;;;6.70;99.90;;;;;;5067818;28;19937;-40
2023/04/25 06:43:10;;;;;;;;;;;6.80;99.90;;;;;;5051359;28;20035;-42
2023/04/25 06:45:37;;;;;;;;;;;7.00;99.90;;;;;;5051994;28;20379;-45
2023/04/25 06:48:05;;;;;;;;;;;7.20;99.90;;;;;;5052767;28;20472;-44
2023/04/25 06:50:32;;;;;;;;;;;7.30;99.90;;;;;;5052917;28;19937;-39
2023/04/25 06:52:58;;;;;;;;;;;7.40;99.90;;;;;;5049684;28;20006;-44
2023/04/25 06:55:25;;;;;;;;;;;7.50;99.90;;;;;;5051101;28;19988;-44
2023/04/25 06:57:51;;;;;;;;;;;7.50;99.90;;;;;;5052689;28;20374;-43
2023/04/25 07:00:19;;;;;;;;;;;7.50;99.90;;;;;;5052794;28;20042;-40
2023/04/25 07:02:46;;;;;;;;;;;7.50;99.90;;;;;;5043439;28;19952;-43
2023/04/25 07:05:14;;;;;;;;;;;7.50;99.90;;;;;;5051349;28;19936;-43
2023/04/25 07:07:40;;;;;;;;;;;7.60;99.90;;;;;;5052711;28;20008;-44
2023/04/25 07:10:07;;;;;;;;;;;7.80;99.90;;;;;;5052356;28;19989;-47
2023/04/25 07:12:34;;;;;;;;;;;7.90;99.90;;;;;;5051455;28;19945;-42
2023/04/25 07:15:05;;;;;;;;;;;8.10;99.90;;;;;;5052586;28;19983;-44
2023/04/25 07:17:32;;;;;;;;;;;8.10;99.90;;;;;;5052746;28;20402;-39
2023/04/25 07:19:59;;;;;;;;;;;8.10;99.90;;;;;;5050974;28;19962;-45
2023/04/25 07:22:27;;;;;;;;;;;8.10;99.90;;;;;;5051920;28;20305;-43
2023/04/25 07:24:54;;;;;;;;;;;8.10;99.90;;;;;;5047430;28;20040;-43
2023/04/25 07:27:20;;;;;;;;;;;8.10;99.90;;;;;;5055388;28;20044;-42
2023/04/25 07:29:47;;;;;;;;;;;8.30;99.90;;;;;;5040914;28;19937;-43
2023/04/25 07:32:13;;;;;;;;;;;8.30;99.90;;;;;;5050787;28;19983;-42
2023/04/25 07:34:41;;;;;;;;;;;8.40;99.90;;;;;;5052218;28;19989;-44
2023/04/25 07:37:07;;;;;;;;;;;8.50;99.90;;;;;;5051332;28;19980;-45
2023/04/25 07:39:36;;;;;;;;;;;8.60;99.90;;;;;;5051844;28;20393;-42
2023/04/25 07:42:03;;;;;;;;;;;8.80;99.90;;;;;;5051216;28;20385;-46
2023/04/25 07:44:30;;;;;;;;;;;8.90;99.90;;;;;;5052084;28;19935;-44
2023/04/25 07:46:57;;;;;;;;;;;9.00;99.90;;;;;;5051241;28;20336;-45
2023/04/25 07:49:24;;;;;;;;;;;9.10;99.90;;;;;;5050485;28;19965;-46
2023/04/25 07:51:50;;;;;;;;;;;9.30;99.90;;;;;;5050209;28;19989;-45
2023/04/25 07:54:17;;;;;;;;;;;9.40;99.90;;;;;;5051164;28;19937;-44
2023/04/25 07:56:45;;;;;;;;;;;9.50;99.90;;;;;;5050871;28;19941;-40
2023/04/25 07:59:12;;;;;;;;;;;9.40;99.90;;;;;;5050503;28;19986;-45
2023/04/25 08:01:38;;;;;;;;;;;9.30;99.90;;;;;;5041950;28;20370;-43
2023/04/25 08:04:05;;;;;;;;;;;9.10;99.90;;;;;;5053232;28;19990;-42
2023/04/25 08:06:32;;;;;;;;;;;8.90;99.90;;;;;;5055379;28;20005;-41
2023/04/25 08:08:59;;;;;;;;;;;8.80;99.90;;;;;;5051454;28;20304;-46
2023/04/25 08:11:26;;;;;;;;;;;8.70;99.90;;;;;;5052203;28;19958;-46
2023/04/25 08:13:54;;;;;;;;;;;8.60;99.90;;;;;;5066446;28;19976;-42
2023/04/25 08:16:20;;;;;;;;;;;8.50;99.90;;;;;;5054344;28;20399;-45
2023/04/25 08:18:47;;;;;;;;;;;8.60;99.90;;;;;;5044389;28;19995;-43
2023/04/25 08:21:14;;;;;;;;;;;8.80;99.90;;;;;;5056401;28;19987;-44
2023/04/25 08:23:40;;;;;;;;;;;9.00;99.90;;;;;;5050495;28;19990;-43
2023/04/25 08:26:07;;;;;;;;;;;9.20;99.90;;;;;;5051051;28;19940;-43
2023/04/25 08:28:34;;;;;;;;;;;9.40;99.90;;;;;;5051128;28;19992;-44
2023/04/25 08:31:02;;;;;;;;;;;9.60;99.90;;;;;;5050170;28;19944;-44
2023/04/25 08:33:29;;;;;;;;;;;9.90;99.90;;;;;;5052275;28;19940;-46
2023/04/25 08:35:56;;;;;;;;;;;10.10;99.90;;;;;;5068920;28;19940;-40
2023/04/25 08:38:23;;;;;;;;;;;10.10;99.90;;;;;;5070406;28;20480;-41
2023/04/25 08:40:50;;;;;;;;;;;10.30;99.90;;;;;;5054427;28;19982;-44
2023/04/25 08:43:16;;;;;;;;;;;10.30;99.90;;;;;;5049848;28;20015;-47
2023/04/25 08:45:43;;;;;;;;;;;10.40;99.90;;;;;;5045394;28;20011;-46
2023/04/25 08:48:12;;;;;;;;;;;10.40;99.90;;;;;;5041270;28;20008;-45
2023/04/25 08:50:38;;;;;;;;;;;10.50;99.90;;;;;;5048964;28;19986;-44
2023/04/25 08:53:05;;;;;;;;;;;10.40;99.90;;;;;;5051000;28;19993;-43
2023/04/25 08:55:31;;;;;;;;;;;10.40;99.90;;;;;;5080367;28;19978;-45
2023/04/25 08:57:58;;;;;;;;;;;10.30;99.90;;;;;;5070606;28;19940;-45
2023/04/25 09:00:25;;;;;;;;;;;10.40;99.90;;;;;;5049256;28;19942;-46
2023/04/25 09:02:52;;;;;;;;;;;10.50;99.90;;;;;;5049243;28;19937;-44
2023/04/25 09:05:20;;;;;;;;;;;10.50;99.90;;;;;;5050718;28;20438;-45
2023/04/25 09:07:46;;;;;;;;;;;10.60;99.90;;;;;;5050213;28;20059;-47
2023/04/25 09:10:13;;;;;;;;;;;10.80;99.90;;;;;;5048432;28;20031;-49
2023/04/25 09:12:40;;;;;;;;;;;10.90;99.90;;;;;;5058730;28;19936;-40
2023/04/25 09:15:07;;;;;;;;;;;10.80;99.90;;;;;;5045097;28;19941;-43
2023/04/25 09:17:34;;;;;;;;;;;10.60;99.90;;;;;;5047339;28;19963;-43
2023/04/25 09:20:08;;;;;;;;;;;10.30;99.90;;;;;;5058792;28;19961;-45
2023/04/25 09:22:36;;;;;;;;;;;9.90;99.90;;;;;;5047910;28;19933;-44
2023/04/25 09:25:03;;;;;;;;;;;9.40;99.90;;;;;;5053719;28;19934;-43
2023/04/25 09:27:30;;;;;;;;;;;9.00;99.90;;;;;;5055479;28;19954;-42
2023/04/25 09:29:57;;;;;;;;;;;8.90;99.90;;;;;;5052570;28;20035;-47
2023/04/25 09:32:24;;;;;;;;;;;9.00;99.90;;;;;;5052348;28;19938;-41
2023/04/25 09:34:51;;;;;;;;;;;9.00;99.90;;;;;;5053550;28;19933;-41
2023/04/25 09:37:18;;;;;;;;;;;9.00;99.90;;;;;;5055737;28;19951;-46
2023/04/25 09:39:47;;;;;;;;;;;9.00;99.90;;;;;;5065777;28;20035;-44
2023/04/25 09:42:13;;;;;;;;;;;9.00;99.90;;;;;;5067785;28;20019;-42
2023/04/25 09:44:43;;;;;;;;;;;9.20;99.90;;;;;;5053583;28;20041;-44
2023/04/25 09:47:10;;;;;;;;;;;9.40;99.90;;;;;;5048265;28;19953;-42
2023/04/25 09:49:39;;;;;;;;;;;9.70;99.90;;;;;;5055218;28;19985;-40
2023/04/25 09:52:06;;;;;;;;;;;10.10;99.90;;;;;;5052083;28;19941;-41
2023/04/25 09:54:32;;;;;;;;;;;10.50;99.90;;;;;;5067919;28;19933;-42
2023/04/25 09:57:00;;;;;;;;;;;10.70;99.90;;;;;;5060931;28;20051;-42
2023/04/25 09:59:27;;;;;;;;;;;10.80;99.90;;;;;;5053041;28;19998;-41
2023/04/25 10:01:54;;;;;;;;;;;10.70;99.90;;;;;;5057398;28;19933;-42
2023/04/25 10:04:21;;;;;;;;;;;10.60;99.90;;;;;;5040916;28;19943;-40
2023/04/25 10:06:49;;;;;;;;;;;10.50;99.90;;;;;;5049233;28;20038;-44
2023/04/25 10:09:15;;;;;;;;;;;10.40;99.90;;;;;;5052539;28;20031;-43
2023/04/25 10:11:42;;;;;;;;;;;10.30;99.90;;;;;;5051275;28;20016;-42
2023/04/25 10:14:11;;;;;;;;;;;10.10;99.90;;;;;;5049079;28;20434;-43
2023/04/25 10:16:37;;;;;;;;;;;10.10;99.90;;;;;;5046560;28;20038;-40
2023/04/25 10:19:04;;;;;;;;;;;10.20;99.90;;;;;;5062621;28;20351;-42
2023/04/25 10:21:30;;;;;;;;;;;10.50;99.90;;;;;;5049997;28;20638;-40
2023/04/25 10:23:57;;;;;;;;;;;10.80;99.90;;;;;;5069020;28;20051;-40
2023/04/25 10:26:24;;;;;;;;;;;11.00;99.90;;;;;;5059115;28;19943;-41
2023/04/25 10:29:00;;;;;;;;;;;11.20;99.90;;;;;;5063616;28;20457;-41
2023/04/25 10:31:28;;;;;;;;;;;11.40;99.90;;;;;;5065541;28;19946;-40
2023/04/25 10:33:55;;;;;;;;;;;11.60;99.90;;;;;;5062994;28;20056;-40
2023/04/25 10:36:22;;;;;;;;;;;11.70;99.90;;;;;;5057166;28;20029;-41
2023/04/25 10:38:50;;;;;;;;;;;11.80;99.90;;;;;;5070320;28;19941;-40
2023/04/25 10:41:18;;;;;;;;;;;11.80;99.90;;;;;;5055702;28;20055;-41
2023/04/25 10:43:45;;;;;;;;;;;11.80;99.90;;;;;;5059223;28;19936;-41
2023/04/25 10:46:15;;;;;;;;;;;11.60;99.90;;;;;;5054909;28;19946;-43
2023/04/25 10:48:50;;;;;;;;;;;11.40;99.90;;;;;;5055188;28;20097;-41
2023/04/25 10:51:17;;;;;;;;;;;11.10;99.90;;;;;;5053447;28;19988;-41
2023/04/25 10:53:44;;;;;;;;;;;10.90;99.90;;;;;;5055818;28;20075;-40
2023/04/25 10:56:12;;;;;;;;;;;10.70;99.90;;;;;;5050148;28;19947;-42
2023/04/25 10:58:42;;;;;;;;;;;10.60;99.90;;;;;;5051252;28;19943;-41
2023/04/25 11:01:09;;;;;;;;;;;10.70;99.90;;;;;;5070801;28;19939;-42
2023/04/25 11:03:38;;;;;;;;;;;11.00;99.90;;;;;;5071340;28;19942;-41
2023/04/25 11:06:07;;;;;;;;;;;11.30;99.90;;;;;;5055771;28;20384;-42
2023/04/25 11:08:35;;;;;;;;;;;11.50;99.90;;;;;;5052030;28;19949;-45
2023/04/25 11:11:02;;;;;;;;;;;11.80;99.90;;;;;;5056657;28;20032;-43
2023/04/25 11:13:30;;;;;;;;;;;12.00;99.90;;;;;;5054718;28;19949;-43
2023/04/25 11:15:56;;;;;;;;;;;12.00;99.90;;;;;;5047476;28;20031;-40
2023/04/25 11:18:26;;;;;;;;;;;11.90;99.90;;;;;;5050723;28;20179;-42
2023/04/25 11:20:53;;;;;;;;;;;11.80;99.90;;;;;;5050492;28;19960;-42
2023/04/25 11:23:21;;;;;;;;;;;11.70;99.90;;;;;;5050652;28;19939;-42
2023/04/25 11:25:47;;;;;;;;;;;11.70;99.90;;;;;;5047170;28;19945;-43
2023/04/25 11:28:21;;;;;;;;;;;11.80;99.90;;;;;;5050941;28;20006;-44
2023/04/25 11:30:48;;;;;;;;;;;12.00;99.90;;;;;;5051078;28;19946;-43
2023/04/25 11:33:15;;;;;;;;;;;12.20;99.90;;;;;;5050721;28;20098;-45
2023/04/25 11:35:42;;;;;;;;;;;12.50;99.90;;;;;;5051046;28;20394;-43
2023/04/25 11:38:08;;;;;;;;;;;12.70;99.90;;;;;;5044080;28;20026;-42
2023/04/25 11:40:37;;;;;;;;;;;12.80;99.90;;;;;;5049994;28;19982;-43
2023/04/25 11:43:04;;;;;;;;;;;12.70;99.90;;;;;;5042890;28;19995;-43
2023/04/25 11:45:31;;;;;;;;;;;12.40;99.90;;;;;;5043910;28;20041;-44
2023/04/25 11:47:58;;;;;;;;;;;12.10;99.90;;;;;;5039140;28;19955;-42
2023/04/25 11:50:25;;;;;;;;;;;11.90;99.90;;;;;;5044789;28;20116;-44
2023/04/25 11:52:51;;;;;;;;;;;11.80;99.90;;;;;;5045095;28;19945;-44
2023/04/25 11:55:18;;;;;;;;;;;11.70;99.90;;;;;;5045530;28;19941;-43
2023/04/25 11:57:48;;;;;;;;;;;11.80;99.90;;;;;;5043714;28;20018;-42
2023/04/25 12:00:16;;;;;;;;;;;12.10;99.90;;;;;;5040211;28;20031;-44
2023/04/25 12:02:43;;;;;;;;;;;12.20;99.90;;;;;;5038313;28;19941;-43
2023/04/25 12:05:10;;;;;;;;;;;12.40;99.90;;;;;;5044053;28;19941;-42
2023/04/25 12:07:37;;;;;;;;;;;12.40;99.90;;;;;;5043381;28;20442;-42
2023/04/25 12:10:08;;;;;;;;;;;12.30;99.90;;;;;;5047488;28;19963;-42
2023/04/25 12:12:35;;;;;;;;;;;12.20;99.90;;;;;;5045362;28;20407;-44
2023/04/25 12:15:15;;;;;;;;;;;12.00;99.90;;;;;;5044368;28;19981;-44
2023/04/25 12:17:41;;;;;;;;;;;11.80;99.90;;;;;;5032429;28;19979;-42
2023/04/25 12:20:09;;;;;;;;;;;11.60;99.90;;;;;;5049931;28;20019;-44
2023/04/25 12:22:36;;;;;;;;;;;11.50;99.90;;;;;;5041876;28;19938;-44
2023/04/25 12:25:03;;;;;;;;;;;11.50;99.90;;;;;;5040652;28;19977;-46
2023/04/25 12:27:31;;;;;;;;;;;11.50;99.90;;;;;;5042478;28;19941;-44
2023/04/25 12:29:58;;;;;;;;;;;11.60;99.90;;;;;;5044706;28;20274;-40
2023/04/25 12:32:26;;;;;;;;;;;11.80;99.90;;;;;;5035689;28;19999;-44
2023/04/25 12:34:52;;;;;;;;;;;12.20;99.90;;;;;;5044951;28;19943;-44
2023/04/25 12:37:20;;;;;;;;;;;12.60;99.90;;;;;;5049212;28;20013;-41
2023/04/25 12:39:46;;;;;;;;;;;12.90;99.90;;;;;;5042208;28;20284;-40
2023/04/25 12:42:13;;;;;;;;;;;12.60;99.90;;;;;;5042096;28;19978;-39
2023/04/25 12:44:40;;;;;;;;;;;11.90;99.90;;;;;;5041398;28;20033;-43
2023/04/25 12:47:06;;;;;;;;;;;11.30;99.90;;;;;;5044335;28;19970;-43
2023/04/25 12:49:34;;;;;;;;;;;11.00;99.90;;;;;;5035248;28;19986;-41
2023/04/25 12:52:01;;;;;;;;;;;10.90;99.90;;;;;;5043948;28;19972;-46
2023/04/25 12:54:28;;;;;;;;;;;11.10;99.90;;;;;;5042070;28;19942;-43
2023/04/25 12:56:54;;;;;;;;;;;11.40;99.90;;;;;;5061227;28;20376;-44
2023/04/25 12:59:21;;;;;;;;;;;11.70;99.90;;;;;;5052785;28;19980;-44
2023/04/25 13:01:48;;;;;;;;;;;11.90;99.90;;;;;;5051649;28;19936;-47
2023/04/25 13:04:14;;;;;;;;;;;12.10;99.90;;;;;;5049812;28;19931;-45
2023/04/25 13:06:42;;;;;;;;;;;12.00;99.90;;;;;;5061063;28;19938;-42
2023/04/25 13:09:09;;;;;;;;;;;11.80;99.90;;;;;;5037647;28;20308;-44
2023/04/25 13:11:36;;;;;;;;;;;11.60;99.90;;;;;;5038360;28;19963;-44
2023/04/25 13:14:03;;;;;;;;;;;11.40;99.90;;;;;;5047887;28;19971;-43
2023/04/25 13:16:29;;;;;;;;;;;11.40;99.90;;;;;;5038253;28;19940;-42
2023/04/25 13:18:56;;;;;;;;;;;11.40;99.90;;;;;;5049888;28;19968;-40
2023/04/25 13:21:23;;;;;;;;;;;11.40;99.90;;;;;;5047461;28;20467;-42
2023/04/25 13:23:51;;;;;;;;;;;11.40;99.90;;;;;;5050545;28;20040;-41
2023/04/25 13:26:18;;;;;;;;;;;11.60;99.90;;;;;;5041984;28;19948;-42
2023/04/25 13:28:44;;;;;;;;;;;11.80;99.90;;;;;;5039271;28;20378;-45
2023/04/25 13:31:11;;;;;;;;;;;12.00;99.90;;;;;;5043134;28;20630;-44
2023/04/25 13:33:37;;;;;;;;;;;12.20;99.90;;;;;;5059482;28;20237;-42
2023/04/25 13:36:05;;;;;;;;;;;12.20;99.90;;;;;;5059765;28;20018;-42
2023/04/25 13:38:31;;;;;;;;;;;12.00;99.90;;;;;;5041075;28;20025;-41
2023/04/25 13:41:00;;;;;;;;;;;11.80;99.90;;;;;;5043590;28;20414;-43
2023/04/25 13:43:27;;;;;;;;;;;11.60;99.90;;;;;;5041230;28;19945;-44
2023/04/25 13:45:53;;;;;;;;;;;11.50;99.90;;;;;;5040941;28;20288;-42
2023/04/25 13:48:20;;;;;;;;;;;11.50;99.90;;;;;;5044257;28;20358;-40
2023/04/25 13:50:47;;;;;;;;;;;11.50;99.90;;;;;;5039025;28;20000;-46
2023/04/25 13:53:14;;;;;;;;;;;11.60;99.90;;;;;;5040330;28;20438;-43
2023/04/25 13:55:40;;;;;;;;;;;12.00;99.90;;;;;;5059579;28;19924;-43
2023/04/25 13:58:09;;;;;;;;;;;12.30;99.90;;;;;;5059393;28;19997;-43
2023/04/25 14:00:37;;;;;;;;;;;12.50;99.90;;;;;;5040306;28;19942;-45
2023/04/25 14:03:07;;;;;;;;;;;12.40;99.90;;;;;;5037863;28;19962;-43
2023/04/25 14:05:37;;;;;;;;;;;12.30;99.90;;;;;;5048107;28;19942;-42
2023/04/25 14:08:05;;;;;;;;;;;12.20;99.90;;;;;;5033594;28;19942;-44
2023/04/25 14:10:31;;;;;;;;;;;12.10;99.90;;;;;;5032936;28;20355;-43
2023/04/25 14:12:58;;;;;;;;;;;12.10;99.90;;;;;;5034287;28;20013;-42
2023/04/25 14:15:26;;;;;;;;;;;12.10;99.90;;;;;;5044751;28;19938;-42
2023/04/25 14:17:53;;;;;;;;;;;12.10;99.90;;;;;;5040430;28;19935;-45
2023/04/25 14:20:21;;;;;;;;;;;12.20;99.90;;;;;;5039239;28;20071;-42
2023/04/25 14:22:47;;;;;;;;;;;12.50;99.90;;;;;;5040564;28;19939;-45
2023/04/25 14:25:14;;;;;;;;;;;12.60;99.90;;;;;;5043850;28;19995;-41